Time;durP1;ratioP1;P1;durP2;ratioP2;P2;SDS_P1;SDS_P2;PMS_P1;PMS_P2;Temp;Humidity;BMP_temperature;BMP_pressure;BME280_temperature;BME280_humidity;BME280_pressure;Samples;Min_cycle;Max_cycle;Signal;HPM_P1;HPM_P2
2021/01/07 00:01:50;;;;;;;;;;;6.50;82.10;;;;;;4930629;28;120118;-78
2021/01/07 00:04:16;;;;;;;;;;;6.50;82.00;;;;;;4930659;28;120527;-78
2021/01/07 00:06:42;;;;;;;;;;;6.50;82.10;;;;;;4947852;28;117980;-78
2021/01/07 00:09:07;;;;;;;;;;;6.50;82.20;;;;;;4931137;28;117817;-78
2021/01/07 00:11:33;;;;;;;;;;;6.50;82.20;;;;;;4946888;28;118078;-78
2021/01/07 00:13:58;;;;;;;;;;;6.50;82.30;;;;;;4946984;28;118051;-78
2021/01/07 00:16:24;;;;;;;;;;;6.50;82.20;;;;;;4931207;28;117242;-78
2021/01/07 00:18:49;;;;;;;;;;;6.50;82.20;;;;;;4934624;28;117745;-78
2021/01/07 00:21:15;;;;;;;;;;;6.50;82.30;;;;;;4950358;28;118438;-78
2021/01/07 00:23:40;;;;;;;;;;;6.50;82.20;;;;;;4950361;28;117440;-78
2021/01/07 00:26:06;;;;;;;;;;;6.50;82.30;;;;;;4934827;28;117548;-78
2021/01/07 00:28:31;;;;;;;;;;;6.50;82.20;;;;;;4934915;28;117269;-78
2021/01/07 00:30:57;;;;;;;;;;;6.50;81.90;;;;;;4933574;28;120136;-78
2021/01/07 00:33:22;;;;;;;;;;;6.50;81.80;;;;;;4933106;28;118609;-78
2021/01/07 00:35:48;;;;;;;;;;;6.50;81.90;;;;;;4950769;28;117713;-78
2021/01/07 00:38:13;;;;;;;;;;;6.50;82.00;;;;;;4951370;28;118279;-78
2021/01/07 00:40:39;;;;;;;;;;;6.50;82.20;;;;;;4933481;28;121137;-78
2021/01/07 00:43:04;;;;;;;;;;;6.40;82.00;;;;;;4933731;28;118250;-78
2021/01/07 00:45:30;;;;;;;;;;;6.40;82.20;;;;;;4934361;28;117553;-78
2021/01/07 00:47:56;;;;;;;;;;;6.50;82.20;;;;;;4934713;28;117887;-78
2021/01/07 00:50:21;;;;;;;;;;;6.40;81.80;;;;;;4933257;28;120662;-78
2021/01/07 00:52:47;;;;;;;;;;;6.50;81.80;;;;;;4933015;28;120030;-78
2021/01/07 00:55:13;;;;;;;;;;;6.50;82.00;;;;;;4933691;28;117588;-78
2021/01/07 00:57:39;;;;;;;;;;;6.50;81.90;;;;;;4933848;28;117607;-78
2021/01/07 01:00:05;;;;;;;;;;;6.50;81.80;;;;;;4949748;28;118167;-78
2021/01/07 01:02:31;;;;;;;;;;;6.50;81.80;;;;;;4949452;28;117991;-78
2021/01/07 01:04:56;;;;;;;;;;;6.50;81.90;;;;;;4934122;28;117544;-78
2021/01/07 01:07:22;;;;;;;;;;;6.50;81.90;;;;;;4934323;28;117874;-78
2021/01/07 01:09:47;;;;;;;;;;;6.50;81.90;;;;;;4932974;28;120595;-78
2021/01/07 01:12:13;;;;;;;;;;;6.50;82.00;;;;;;4949635;28;117964;-78
2021/01/07 01:14:39;;;;;;;;;;;6.40;81.70;;;;;;4950635;28;117780;-78
2021/01/07 01:17:04;;;;;;;;;;;6.50;82.50;;;;;;4950739;28;118393;-78
2021/01/07 01:19:31;;;;;;;;;;;6.40;81.90;;;;;;4932798;28;119454;-78
2021/01/07 01:21:57;;;;;;;;;;;6.50;81.90;;;;;;4932410;28;119592;-78
2021/01/07 01:24:22;;;;;;;;;;;6.40;82.60;;;;;;4950695;28;117358;-78
2021/01/07 01:26:54;;;;;;;;;;;6.50;81.90;;;;;;4950647;28;117863;-78
2021/01/07 01:29:20;;;;;;;;;;;6.50;81.80;;;;;;4948506;28;117564;-78
2021/01/07 01:31:45;;;;;;;;;;;6.50;81.80;;;;;;4932678;28;118349;-78
2021/01/07 01:34:11;;;;;;;;;;;6.50;81.80;;;;;;4933647;28;117631;-78
2021/01/07 01:36:36;;;;;;;;;;;6.40;81.90;;;;;;4950549;28;117812;-78
2021/01/07 01:39:02;;;;;;;;;;;6.40;81.70;;;;;;4949331;28;117530;-78
2021/01/07 01:41:28;;;;;;;;;;;6.40;81.70;;;;;;4932644;28;120288;-78
2021/01/07 01:43:53;;;;;;;;;;;6.50;81.80;;;;;;4933575;28;117670;-78
2021/01/07 01:46:19;;;;;;;;;;;6.40;81.80;;;;;;4949778;28;117779;-79
2021/01/07 01:48:44;;;;;;;;;;;6.40;81.90;;;;;;4948983;28;117318;-78
2021/01/07 01:51:10;;;;;;;;;;;6.40;81.80;;;;;;4932408;28;119760;-78
2021/01/07 01:53:38;;;;;;;;;;;6.40;81.70;;;;;;4933359;28;117669;-78
2021/01/07 01:56:04;;;;;;;;;;;6.50;81.80;;;;;;4950290;28;117401;-78
2021/01/07 01:58:30;;;;;;;;;;;6.50;81.70;;;;;;4932407;28;120465;-78
2021/01/07 02:00:55;;;;;;;;;;;6.40;81.50;;;;;;4948690;28;117964;-78
2021/01/07 02:03:21;;;;;;;;;;;6.40;81.80;;;;;;4933266;28;117565;-78
2021/01/07 02:05:46;;;;;;;;;;;6.40;81.80;;;;;;4933409;28;117977;-78
2021/01/07 02:08:12;;;;;;;;;;;6.40;81.70;;;;;;4932211;28;117551;-78
2021/01/07 02:10:38;;;;;;;;;;;6.40;81.60;;;;;;4931484;28;118744;-78
2021/01/07 02:13:03;;;;;;;;;;;6.50;81.60;;;;;;4932969;28;117368;-78
2021/01/07 02:15:29;;;;;;;;;;;6.40;81.50;;;;;;4933311;28;117896;-78
2021/01/07 02:17:58;;;;;;;;;;;6.40;81.40;;;;;;4948554;28;119222;-78
2021/01/07 02:20:24;;;;;;;;;;;6.40;81.70;;;;;;4948384;28;117562;-78
2021/01/07 02:22:56;;;;;;;;;;;6.40;81.60;;;;;;4932875;28;117528;-78
2021/01/07 02:25:21;;;;;;;;;;;6.40;81.60;;;;;;4933214;28;117877;-78
2021/01/07 02:27:47;;;;;;;;;;;6.40;81.60;;;;;;4932556;28;119593;-78
2021/01/07 02:30:13;;;;;;;;;;;6.50;81.80;;;;;;4931992;28;119421;-78
2021/01/07 02:32:39;;;;;;;;;;;6.50;81.70;;;;;;4932732;28;117446;-78
2021/01/07 02:35:04;;;;;;;;;;;6.40;81.60;;;;;;4932528;28;117837;-78
2021/01/07 02:37:30;;;;;;;;;;;6.40;81.70;;;;;;4948136;28;118084;-78
2021/01/07 02:39:55;;;;;;;;;;;6.40;81.70;;;;;;4947657;28;117714;-78
2021/01/07 02:42:24;;;;;;;;;;;6.40;81.70;;;;;;4931927;28;117576;-77
2021/01/07 02:44:49;;;;;;;;;;;6.40;81.70;;;;;;4933000;28;117333;-77
2021/01/07 02:47:15;;;;;;;;;;;6.40;81.40;;;;;;4948172;28;117457;-77
2021/01/07 02:49:41;;;;;;;;;;;6.40;81.50;;;;;;4931436;28;118619;-77
2021/01/07 02:52:06;;;;;;;;;;;6.40;81.60;;;;;;4948687;28;119139;-77
2021/01/07 02:54:32;;;;;;;;;;;6.40;81.50;;;;;;4949014;28;117420;-77
2021/01/07 02:56:57;;;;;;;;;;;6.40;81.50;;;;;;4948153;28;118142;-77
2021/01/07 02:59:23;;;;;;;;;;;6.40;81.60;;;;;;4947431;28;117562;-77
2021/01/07 03:01:48;;;;;;;;;;;6.40;81.40;;;;;;4948886;28;118026;-77
2021/01/07 03:04:14;;;;;;;;;;;6.40;81.50;;;;;;4949407;28;117476;-77
2021/01/07 03:06:39;;;;;;;;;;;6.40;81.40;;;;;;4931347;28;120292;-77
2021/01/07 03:09:05;;;;;;;;;;;6.50;81.70;;;;;;4931271;28;119882;-77
2021/01/07 03:11:30;;;;;;;;;;;6.50;81.80;;;;;;4932024;28;118023;-77
2021/01/07 03:13:57;;;;;;;;;;;6.40;81.60;;;;;;4932456;28;117914;-77
2021/01/07 03:16:22;;;;;;;;;;;6.40;81.40;;;;;;4947754;28;119180;-77
2021/01/07 03:18:48;;;;;;;;;;;6.40;81.60;;;;;;4947830;28;117328;-77
2021/01/07 03:21:13;;;;;;;;;;;6.40;81.70;;;;;;4965990;28;117735;-77
2021/01/07 03:23:39;;;;;;;;;;;6.40;81.50;;;;;;4931994;28;117796;-77
2021/01/07 03:26:04;;;;;;;;;;;6.40;81.50;;;;;;4947749;28;117397;-77
2021/01/07 03:28:30;;;;;;;;;;;6.40;81.50;;;;;;4931079;28;119338;-77
2021/01/07 03:30:55;;;;;;;;;;;6.40;81.40;;;;;;4948271;28;117615;-77
2021/01/07 03:33:21;;;;;;;;;;;6.40;81.40;;;;;;4932156;28;117303;-77
2021/01/07 03:35:46;;;;;;;;;;;6.40;81.50;;;;;;4947527;28;118255;-77
2021/01/07 03:38:12;;;;;;;;;;;6.40;81.40;;;;;;4930874;28;118243;-77
2021/01/07 03:40:37;;;;;;;;;;;6.40;81.50;;;;;;4948441;28;117448;-78
2021/01/07 03:43:03;;;;;;;;;;;6.40;81.60;;;;;;4932102;28;117905;-78
2021/01/07 03:45:28;;;;;;;;;;;6.40;81.50;;;;;;4930697;28;120934;-77
2021/01/07 03:47:54;;;;;;;;;;;6.40;82.10;;;;;;4930151;28;117527;-77
2021/01/07 03:50:20;;;;;;;;;;;6.40;81.40;;;;;;4948009;28;117513;-77
2021/01/07 03:52:45;;;;;;;;;;;6.40;81.50;;;;;;4947834;28;117550;-77
2021/01/07 03:55:11;;;;;;;;;;;6.40;81.30;;;;;;4946505;28;120196;-77
2021/01/07 03:57:36;;;;;;;;;;;6.40;81.50;;;;;;4947240;28;117700;-77
2021/01/07 04:00:03;;;;;;;;;;;6.40;81.40;;;;;;4931166;28;117507;-77
2021/01/07 04:02:29;;;;;;;;;;;6.40;81.30;;;;;;4948110;28;117849;-77
2021/01/07 04:04:54;;;;;;;;;;;6.40;81.30;;;;;;4930642;28;121415;-77
2021/01/07 04:07:20;;;;;;;;;;;6.40;81.50;;;;;;4930486;28;119781;-77
2021/01/07 04:09:45;;;;;;;;;;;6.40;81.30;;;;;;4947682;28;117323;-77
2021/01/07 04:12:11;;;;;;;;;;;6.40;81.20;;;;;;4931050;28;117805;-77
2021/01/07 04:14:36;;;;;;;;;;;6.40;81.40;;;;;;4930418;28;120276;-77
2021/01/07 04:17:02;;;;;;;;;;;6.40;81.40;;;;;;4930357;28;119818;-77
2021/01/07 04:19:27;;;;;;;;;;;6.40;81.30;;;;;;4948071;28;117491;-78
2021/01/07 04:21:53;;;;;;;;;;;6.40;81.40;;;;;;4948097;28;117799;-78
2021/01/07 04:24:18;;;;;;;;;;;6.40;81.50;;;;;;4947005;28;118564;-78
2021/01/07 04:26:44;;;;;;;;;;;6.40;81.40;;;;;;4946898;28;117703;-78
2021/01/07 04:29:10;;;;;;;;;;;6.40;81.40;;;;;;4931113;28;117470;-78
2021/01/07 04:31:35;;;;;;;;;;;6.40;81.30;;;;;;4947893;28;117858;-78
2021/01/07 04:34:01;;;;;;;;;;;6.40;81.40;;;;;;4946848;28;117494;-78
2021/01/07 04:36:26;;;;;;;;;;;6.40;81.30;;;;;;4946218;28;117881;-78
2021/01/07 04:38:52;;;;;;;;;;;6.40;81.40;;;;;;4947464;28;118022;-78
2021/01/07 04:41:18;;;;;;;;;;;6.40;81.40;;;;;;4948141;28;117473;-77
2021/01/07 04:43:43;;;;;;;;;;;6.40;81.20;;;;;;4930139;28;120308;-77
2021/01/07 04:46:09;;;;;;;;;;;6.40;81.20;;;;;;4930063;28;119756;-77
2021/01/07 04:48:36;;;;;;;;;;;6.40;81.30;;;;;;4947418;28;117573;-77
2021/01/07 04:51:03;;;;;;;;;;;6.40;81.20;;;;;;4947852;28;118228;-77
2021/01/07 04:53:28;;;;;;;;;;;6.40;81.20;;;;;;4930039;28;117530;-77
2021/01/07 04:55:54;;;;;;;;;;;6.40;81.30;;;;;;4946191;28;117561;-77
2021/01/07 04:58:19;;;;;;;;;;;6.40;81.30;;;;;;4947350;28;117470;-77
2021/01/07 05:00:45;;;;;;;;;;;6.40;81.40;;;;;;4930434;28;117825;-77
2021/01/07 05:03:18;;;;;;;;;;;6.40;81.30;;;;;;4946620;28;117856;-77
2021/01/07 05:05:44;;;;;;;;;;;6.40;81.30;;;;;;4949533;28;117624;-77
2021/01/07 05:08:09;;;;;;;;;;;6.40;81.30;;;;;;4934001;28;117565;-77
2021/01/07 05:10:35;;;;;;;;;;;6.40;81.30;;;;;;4950339;28;117485;-77
2021/01/07 05:13:00;;;;;;;;;;;6.40;81.30;;;;;;4932975;28;117625;-77
2021/01/07 05:15:25;;;;;;;;;;;6.40;81.20;;;;;;4932945;28;118500;-77
2021/01/07 05:17:51;;;;;;;;;;;6.40;81.30;;;;;;4933997;28;117560;-77
2021/01/07 05:20:17;;;;;;;;;;;6.40;81.30;;;;;;4950237;28;118021;-77
2021/01/07 05:22:43;;;;;;;;;;;6.40;81.30;;;;;;4966881;28;118787;-77
2021/01/07 05:25:09;;;;;;;;;;;6.40;81.20;;;;;;4932402;28;120233;-77
2021/01/07 05:27:35;;;;;;;;;;;6.40;81.20;;;;;;4933647;28;117612;-77
2021/01/07 05:30:00;;;;;;;;;;;6.40;81.20;;;;;;4950554;28;117685;-77
2021/01/07 05:32:33;;;;;;;;;;;6.40;81.20;;;;;;4932856;28;120428;-77
2021/01/07 05:34:58;;;;;;;;;;;6.40;81.20;;;;;;4932905;28;119685;-77
2021/01/07 05:37:23;;;;;;;;;;;6.40;81.10;;;;;;4967631;28;117504;-77
2021/01/07 05:39:49;;;;;;;;;;;6.40;81.10;;;;;;4950386;28;117772;-77
2021/01/07 05:42:15;;;;;;;;;;;6.40;81.10;;;;;;4949399;28;118246;-77
2021/01/07 05:44:41;;;;;;;;;;;6.40;81.10;;;;;;4949257;28;117411;-77
2021/01/07 05:47:07;;;;;;;;;;;6.40;81.10;;;;;;4933286;28;117867;-77
2021/01/07 05:49:36;;;;;;;;;;;6.40;81.10;;;;;;4933110;28;117722;-77
2021/01/07 05:52:05;;;;;;;;;;;6.40;81.00;;;;;;4932661;28;120260;-77
2021/01/07 05:54:31;;;;;;;;;;;6.40;81.00;;;;;;4948722;28;117867;-77
2021/01/07 05:56:57;;;;;;;;;;;6.40;81.00;;;;;;4949954;28;117716;-77
2021/01/07 05:59:22;;;;;;;;;;;6.40;81.10;;;;;;4950248;28;117777;-77
2021/01/07 06:01:47;;;;;;;;;;;6.40;81.10;;;;;;4949011;28;119249;-77
2021/01/07 06:04:13;;;;;;;;;;;6.40;81.20;;;;;;4948904;28;117450;-77
2021/01/07 06:06:38;;;;;;;;;;;6.40;81.00;;;;;;4933282;28;117825;-77
2021/01/07 06:09:04;;;;;;;;;;;6.40;81.00;;;;;;4949999;28;117789;-77
2021/01/07 06:11:30;;;;;;;;;;;6.40;81.10;;;;;;4948439;28;118574;-77
2021/01/07 06:13:55;;;;;;;;;;;6.40;81.10;;;;;;4931507;28;120242;-77
2021/01/07 06:16:21;;;;;;;;;;;6.40;81.00;;;;;;4932437;28;117483;-77
2021/01/07 06:18:47;;;;;;;;;;;6.40;81.00;;;;;;4949624;28;117494;-77
2021/01/07 06:21:13;;;;;;;;;;;6.40;81.00;;;;;;4932017;28;119217;-77
2021/01/07 06:23:42;;;;;;;;;;;6.40;81.00;;;;;;4932230;28;120092;-77
2021/01/07 06:26:17;;;;;;;;;;;6.40;80.90;;;;;;4932986;28;117593;-77
2021/01/07 06:28:44;;;;;;;;;;;6.40;81.00;;;;;;4950090;28;117822;-77
2021/01/07 06:31:13;;;;;;;;;;;6.40;80.90;;;;;;4932051;28;119249;-77
2021/01/07 06:33:38;;;;;;;;;;;6.40;80.80;;;;;;4948238;28;118036;-77
2021/01/07 06:36:07;;;;;;;;;;;6.40;80.80;;;;;;4949209;28;117501;-77
2021/01/07 06:38:33;;;;;;;;;;;6.40;80.80;;;;;;4966365;28;117780;-77
2021/01/07 06:40:59;;;;;;;;;;;6.40;80.80;;;;;;4931574;28;119413;-77
2021/01/07 06:43:25;;;;;;;;;;;6.40;80.80;;;;;;4948264;28;117593;-77
2021/01/07 06:45:51;;;;;;;;;;;6.40;80.80;;;;;;4948778;28;117595;-77
2021/01/07 06:48:29;;;;;;;;;;;6.40;80.80;;;;;;4949436;28;117931;-77
2021/01/07 06:50:55;;;;;;;;;;;6.40;80.80;;;;;;4931349;28;120615;-77
2021/01/07 06:53:21;;;;;;;;;;;6.40;80.80;;;;;;4947890;28;117651;-77
2021/01/07 06:56:05;;;;;;;;;;;6.40;80.80;;;;;;4948705;28;117625;-77
2021/01/07 06:58:30;;;;;;;;;;;6.40;80.70;;;;;;4965261;28;117938;-77
2021/01/07 07:00:56;;;;;;;;;;;6.40;80.80;;;;;;4931016;28;120328;-77
2021/01/07 07:03:21;;;;;;;;;;;6.40;80.70;;;;;;4947431;28;118005;-77
2021/01/07 07:05:52;;;;;;;;;;;6.40;80.70;;;;;;4948806;28;117496;-77
2021/01/07 07:08:21;;;;;;;;;;;6.40;80.70;;;;;;4949236;28;117524;-77
2021/01/07 07:10:53;;;;;;;;;;;6.40;81.20;;;;;;4947582;28;118685;-77
2021/01/07 07:13:20;;;;;;;;;;;6.40;80.70;;;;;;4931226;28;117693;-77
2021/01/07 07:15:46;;;;;;;;;;;6.40;80.70;;;;;;4932005;28;117605;-77
2021/01/07 07:18:11;;;;;;;;;;;6.40;80.70;;;;;;4948830;28;117807;-77
2021/01/07 07:20:40;;;;;;;;;;;6.40;80.70;;;;;;4930972;28;120457;-77
2021/01/07 07:23:12;;;;;;;;;;;6.40;80.80;;;;;;4947740;28;117520;-77
2021/01/07 07:25:38;;;;;;;;;;;6.40;80.80;;;;;;4948639;28;117336;-77
2021/01/07 07:28:04;;;;;;;;;;;6.40;80.80;;;;;;4947604;28;117811;-78
2021/01/07 07:30:33;;;;;;;;;;;6.40;80.80;;;;;;4964772;28;118022;-78
2021/01/07 07:33:05;;;;;;;;;;;6.40;80.80;;;;;;4947767;28;119180;-78
2021/01/07 07:35:44;;;;;;;;;;;6.40;80.80;;;;;;4949199;28;117882;-77
2021/01/07 07:38:10;;;;;;;;;;;6.40;80.80;;;;;;4932650;28;117365;-77
2021/01/07 07:40:39;;;;;;;;;;;6.40;80.90;;;;;;4946651;28;118667;-77
2021/01/07 07:43:05;;;;;;;;;;;6.40;80.80;;;;;;4964863;28;118091;-77
2021/01/07 07:45:32;;;;;;;;;;;6.30;80.80;;;;;;4932001;28;117426;-77
2021/01/07 07:47:58;;;;;;;;;;;6.40;80.70;;;;;;4932208;28;117418;-77
2021/01/07 07:50:27;;;;;;;;;;;6.40;80.70;;;;;;4930307;28;120815;-77
2021/01/07 07:53:06;;;;;;;;;;;6.30;80.70;;;;;;4947042;28;117773;-77
2021/01/07 07:55:39;;;;;;;;;;;6.30;80.70;;;;;;4947582;28;117481;-77
2021/01/07 07:58:08;;;;;;;;;;;6.40;80.80;;;;;;4965948;28;117444;-77
2021/01/07 08:00:33;;;;;;;;;;;6.30;80.70;;;;;;4963088;28;119642;-77
2021/01/07 08:02:59;;;;;;;;;;;6.40;80.70;;;;;;4930486;28;119434;-77
2021/01/07 08:05:28;;;;;;;;;;;6.40;80.80;;;;;;4947738;28;117417;-77
2021/01/07 08:07:54;;;;;;;;;;;6.40;80.80;;;;;;4931987;28;117545;-77
2021/01/07 08:10:20;;;;;;;;;;;6.40;80.70;;;;;;4947410;28;117571;-78
2021/01/07 08:12:45;;;;;;;;;;;6.30;80.70;;;;;;4930489;28;118928;-77
2021/01/07 08:15:11;;;;;;;;;;;6.40;80.70;;;;;;4947892;28;117412;-77
2021/01/07 08:17:37;;;;;;;;;;;6.40;80.70;;;;;;4947476;28;117971;-77
2021/01/07 08:20:02;;;;;;;;;;;6.30;80.60;;;;;;4964270;28;118757;-77
2021/01/07 08:22:28;;;;;;;;;;;6.40;80.70;;;;;;4946812;28;118108;-77
2021/01/07 08:24:57;;;;;;;;;;;6.40;80.70;;;;;;4931459;28;117812;-77
2021/01/07 08:27:23;;;;;;;;;;;6.40;80.70;;;;;;4947823;28;117726;-77
2021/01/07 08:29:56;;;;;;;;;;;6.40;80.70;;;;;;4946868;28;117840;-77
2021/01/07 08:32:21;;;;;;;;;;;6.30;80.60;;;;;;4946686;28;117689;-77
2021/01/07 08:34:47;;;;;;;;;;;6.30;80.70;;;;;;4947586;28;117449;-77
2021/01/07 08:37:21;;;;;;;;;;;6.40;80.70;;;;;;4931530;28;118138;-77
2021/01/07 08:39:47;;;;;;;;;;;6.40;80.70;;;;;;4949391;28;120859;-77
2021/01/07 08:42:14;;;;;;;;;;;6.30;80.70;;;;;;4933378;28;118263;-77
2021/01/07 08:44:39;;;;;;;;;;;6.40;80.70;;;;;;4951010;28;117909;-77
2021/01/07 08:47:19;;;;;;;;;;;6.40;80.70;;;;;;4968976;28;117475;-77
2021/01/07 08:49:44;;;;;;;;;;;6.30;80.60;;;;;;4950206;28;118664;-77
2021/01/07 08:52:10;;;;;;;;;;;6.40;80.70;;;;;;4933318;28;118610;-77
2021/01/07 08:54:35;;;;;;;;;;;6.40;80.60;;;;;;4950579;28;117485;-77
2021/01/07 08:57:09;;;;;;;;;;;6.30;80.40;;;;;;4934636;28;117370;-77
2021/01/07 08:59:40;;;;;;;;;;;6.30;80.40;;;;;;4933234;28;121137;-78
2021/01/07 09:02:08;;;;;;;;;;;6.30;80.50;;;;;;4934012;28;117681;-77
2021/01/07 09:04:34;;;;;;;;;;;6.30;80.50;;;;;;4966779;28;117456;-77
2021/01/07 09:07:15;;;;;;;;;;;6.30;80.50;;;;;;4950372;28;117755;-77
2021/01/07 09:09:53;;;;;;;;;;;6.30;80.40;;;;;;4967184;28;118545;-77
2021/01/07 09:12:29;;;;;;;;;;;6.30;80.40;;;;;;4933218;28;119878;-77
2021/01/07 09:14:55;;;;;;;;;;;6.30;80.40;;;;;;4950544;28;117454;-77
2021/01/07 09:17:21;;;;;;;;;;;6.30;80.40;;;;;;4934349;28;117382;-77
2021/01/07 09:19:47;;;;;;;;;;;6.30;80.40;;;;;;4949318;28;118635;-77
2021/01/07 09:22:16;;;;;;;;;;;6.30;80.40;;;;;;4932913;28;117635;-78
2021/01/07 09:24:42;;;;;;;;;;;6.30;80.50;;;;;;4950627;28;117534;-78
2021/01/07 09:27:11;;;;;;;;;;;6.30;80.40;;;;;;4950808;28;117945;-77
2021/01/07 09:29:37;;;;;;;;;;;6.30;80.40;;;;;;4948924;28;118475;-77
2021/01/07 09:32:03;;;;;;;;;;;6.30;80.30;;;;;;4932311;28;119800;-77
2021/01/07 09:34:29;;;;;;;;;;;6.30;80.30;;;;;;4933760;28;118124;-77
2021/01/07 09:36:54;;;;;;;;;;;6.30;80.30;;;;;;4934128;28;117061;-77
2021/01/07 09:39:20;;;;;;;;;;;6.30;80.30;;;;;;4932573;28;120466;-76
2021/01/07 09:41:46;;;;;;;;;;;6.30;80.30;;;;;;4932719;28;117920;-76
2021/01/07 09:44:12;;;;;;;;;;;6.30;80.40;;;;;;4933694;28;117456;-77
2021/01/07 09:46:37;;;;;;;;;;;6.30;80.40;;;;;;4967872;28;118101;-77
2021/01/07 09:49:03;;;;;;;;;;;6.30;80.30;;;;;;4949471;28;117576;-77
2021/01/07 09:51:28;;;;;;;;;;;6.30;80.30;;;;;;4931919;28;118193;-77
2021/01/07 09:53:54;;;;;;;;;;;6.30;80.30;;;;;;4933143;28;117801;-77
2021/01/07 09:56:19;;;;;;;;;;;6.30;80.40;;;;;;4949410;28;117818;-77
2021/01/07 09:58:44;;;;;;;;;;;6.30;80.30;;;;;;4932232;28;118925;-77
2021/01/07 10:01:10;;;;;;;;;;;6.30;80.40;;;;;;4932357;28;120873;-77
2021/01/07 10:03:36;;;;;;;;;;;6.30;80.90;;;;;;4933243;28;117382;-77
2021/01/07 10:06:01;;;;;;;;;;;6.30;80.30;;;;;;4933483;28;117776;-77
2021/01/07 10:08:27;;;;;;;;;;;6.30;80.40;;;;;;4932303;28;120497;-77
2021/01/07 10:10:52;;;;;;;;;;;6.30;80.30;;;;;;4948173;28;117321;-77
2021/01/07 10:13:17;;;;;;;;;;;6.30;80.30;;;;;;4949717;28;117397;-77
2021/01/07 10:15:43;;;;;;;;;;;6.30;80.30;;;;;;4933422;28;117853;-77
2021/01/07 10:18:08;;;;;;;;;;;6.30;80.40;;;;;;4948767;28;117401;-77
2021/01/07 10:20:34;;;;;;;;;;;6.30;80.30;;;;;;4948002;28;117483;-77
2021/01/07 10:23:00;;;;;;;;;;;6.30;80.20;;;;;;4932788;28;117608;-77
2021/01/07 10:25:25;;;;;;;;;;;6.30;80.20;;;;;;4949831;28;117888;-77
2021/01/07 10:27:51;;;;;;;;;;;6.30;80.30;;;;;;4931904;28;119544;-77
2021/01/07 10:30:17;;;;;;;;;;;6.30;80.10;;;;;;4931658;28;119660;-77
2021/01/07 10:32:42;;;;;;;;;;;6.30;80.20;;;;;;4932697;28;117755;-77
2021/01/07 10:35:08;;;;;;;;;;;6.30;80.20;;;;;;4933011;28;117412;-77
2021/01/07 10:37:33;;;;;;;;;;;6.30;80.20;;;;;;4931919;28;120532;-77
2021/01/07 10:39:59;;;;;;;;;;;6.30;80.10;;;;;;4931661;28;119852;-77
2021/01/07 10:42:25;;;;;;;;;;;6.30;80.10;;;;;;4949085;28;117272;-76
2021/01/07 10:44:52;;;;;;;;;;;6.30;80.20;;;;;;4948870;28;117337;-78
2021/01/07 10:47:17;;;;;;;;;;;6.30;80.20;;;;;;4948476;28;118371;-78
2021/01/07 10:49:44;;;;;;;;;;;6.30;80.20;;;;;;4931442;28;118063;-77
2021/01/07 10:52:13;;;;;;;;;;;6.30;80.20;;;;;;4932729;28;117528;-77
2021/01/07 10:54:44;;;;;;;;;;;6.30;80.10;;;;;;4965154;28;117978;-78
2021/01/07 10:57:13;;;;;;;;;;;6.30;80.20;;;;;;4964644;28;118842;-78
2021/01/07 10:59:53;;;;;;;;;;;6.30;80.00;;;;;;4965778;28;117807;-78
2021/01/07 11:02:30;;;;;;;;;;;6.30;79.60;;;;;;4932139;28;117333;-78
2021/01/07 11:05:03;;;;;;;;;;;6.30;79.70;;;;;;4966457;28;118347;-78
2021/01/07 11:07:29;;;;;;;;;;;6.30;79.80;;;;;;4948154;28;119450;-77
2021/01/07 11:09:59;;;;;;;;;;;6.30;79.70;;;;;;4931234;28;118057;-77
2021/01/07 11:12:26;;;;;;;;;;;6.30;79.70;;;;;;4950761;28;117483;-77
2021/01/07 11:15:03;;;;;;;;;;;6.30;79.80;;;;;;4949219;28;117682;-77
2021/01/07 11:17:28;;;;;;;;;;;6.30;79.70;;;;;;4931280;28;120499;-77
2021/01/07 11:19:54;;;;;;;;;;;6.30;79.80;;;;;;4931169;28;117966;-77
2021/01/07 11:22:20;;;;;;;;;;;6.30;79.50;;;;;;4948733;28;117566;-77
2021/01/07 11:24:46;;;;;;;;;;;6.30;79.60;;;;;;4932442;28;117596;-77
2021/01/07 11:27:12;;;;;;;;;;;6.30;79.70;;;;;;4931721;28;120305;-77
2021/01/07 11:29:41;;;;;;;;;;;6.30;79.50;;;;;;4931249;28;117879;-78
2021/01/07 11:32:07;;;;;;;;;;;6.30;79.60;;;;;;4931945;28;117683;-78
2021/01/07 11:34:33;;;;;;;;;;;6.30;79.60;;;;;;4932013;28;117765;-78
2021/01/07 11:37:04;;;;;;;;;;;6.30;79.60;;;;;;4947977;28;118863;-78
2021/01/07 11:39:50;;;;;;;;;;;6.30;79.60;;;;;;4963628;28;117498;-78
2021/01/07 11:42:37;;;;;;;;;;;6.30;79.60;;;;;;4964911;28;117627;-78
2021/01/07 11:45:11;;;;;;;;;;;6.30;79.60;;;;;;4948777;28;117545;-78
2021/01/07 11:47:55;;;;;;;;;;;6.30;79.70;;;;;;4931378;28;119529;-78
2021/01/07 11:50:22;;;;;;;;;;;6.30;79.50;;;;;;4930627;28;119296;-78
2021/01/07 11:52:47;;;;;;;;;;;6.30;79.50;;;;;;4931776;28;117910;-79
2021/01/07 11:55:13;;;;;;;;;;;6.30;79.60;;;;;;4948290;28;117787;-78
2021/01/07 11:57:39;;;;;;;;;;;6.30;79.60;;;;;;4930831;28;118732;-78
2021/01/07 12:00:05;;;;;;;;;;;6.30;79.70;;;;;;4929902;28;120056;-78
2021/01/07 12:02:30;;;;;;;;;;;6.30;79.60;;;;;;4931568;28;117433;-78
2021/01/07 12:04:57;;;;;;;;;;;6.30;79.60;;;;;;4932303;28;117927;-78
2021/01/07 12:07:22;;;;;;;;;;;6.30;79.50;;;;;;4947307;28;118205;-77
2021/01/07 12:09:48;;;;;;;;;;;6.30;79.50;;;;;;4962974;28;117614;-77
2021/01/07 12:12:14;;;;;;;;;;;6.30;79.40;;;;;;4931515;28;117983;-77
2021/01/07 12:14:42;;;;;;;;;;;6.30;79.30;;;;;;4954254;28;117334;-77
2021/01/07 12:17:07;;;;;;;;;;;6.30;79.30;;;;;;4937044;28;119258;-77
2021/01/07 12:19:33;;;;;;;;;;;6.30;79.40;;;;;;4953436;28;118079;-77
2021/01/07 12:21:59;;;;;;;;;;;6.30;79.00;;;;;;4972063;28;117573;-77
2021/01/07 12:24:25;;;;;;;;;;;6.30;79.30;;;;;;4954267;28;117560;-77
2021/01/07 12:26:50;;;;;;;;;;;6.30;79.30;;;;;;4936650;28;120169;-77
2021/01/07 12:29:20;;;;;;;;;;;6.30;79.40;;;;;;4953005;28;117755;-77
2021/01/07 12:31:49;;;;;;;;;;;6.30;79.40;;;;;;4954216;28;117243;-77
2021/01/07 12:34:31;;;;;;;;;;;6.30;79.20;;;;;;4937935;28;117923;-77
2021/01/07 12:37:10;;;;;;;;;;;6.30;79.30;;;;;;4936723;28;119253;-77
2021/01/07 12:39:36;;;;;;;;;;;6.30;79.50;;;;;;4936543;28;120029;-77
2021/01/07 12:42:10;;;;;;;;;;;6.30;79.30;;;;;;4954415;28;117488;-77
2021/01/07 12:44:36;;;;;;;;;;;6.30;79.30;;;;;;4954380;28;117502;-77
2021/01/07 12:47:02;;;;;;;;;;;6.30;79.30;;;;;;4936497;28;120468;-77
2021/01/07 12:49:28;;;;;;;;;;;6.30;79.40;;;;;;4935918;28;119483;-77
2021/01/07 12:51:53;;;;;;;;;;;6.30;79.40;;;;;;4953715;28;117702;-77
2021/01/07 12:54:19;;;;;;;;;;;6.30;79.40;;;;;;4954363;28;117883;-77
2021/01/07 12:56:44;;;;;;;;;;;6.30;79.50;;;;;;4952732;28;117356;-77
2021/01/07 12:59:10;;;;;;;;;;;6.30;79.60;;;;;;4969013;28;119562;-77
2021/01/07 13:01:37;;;;;;;;;;;6.30;79.50;;;;;;4937298;28;117357;-77
2021/01/07 13:04:11;;;;;;;;;;;6.30;79.50;;;;;;4954221;28;117321;-77
2021/01/07 13:06:38;;;;;;;;;;;6.30;79.50;;;;;;4936387;28;119605;-77
2021/01/07 13:09:03;;;;;;;;;;;6.30;79.40;;;;;;4952616;28;117802;-77
2021/01/07 13:11:29;;;;;;;;;;;6.30;79.50;;;;;;4971515;28;117475;-77
2021/01/07 13:13:55;;;;;;;;;;;6.30;79.50;;;;;;4953527;28;117857;-77
2021/01/07 13:16:21;;;;;;;;;;;6.30;79.50;;;;;;4936277;28;118366;-76
2021/01/07 13:18:47;;;;;;;;;;;6.30;79.60;;;;;;4952315;28;118354;-77
2021/01/07 13:21:12;;;;;;;;;;;6.30;79.60;;;;;;4937156;28;117821;-77
2021/01/07 13:23:38;;;;;;;;;;;6.30;79.60;;;;;;4953686;28;118118;-77
2021/01/07 13:26:03;;;;;;;;;;;6.30;79.30;;;;;;4948940;28;118886;-77
2021/01/07 13:28:29;;;;;;;;;;;6.30;79.40;;;;;;4949589;28;117466;-77
2021/01/07 13:30:55;;;;;;;;;;;6.30;79.50;;;;;;4950585;28;117469;-77
2021/01/07 13:33:21;;;;;;;;;;;6.30;79.40;;;;;;4950629;28;117507;-77
2021/01/07 13:35:46;;;;;;;;;;;6.30;79.30;;;;;;4932911;28;119416;-77
2021/01/07 13:38:13;;;;;;;;;;;6.30;79.30;;;;;;4932419;28;119120;-77
2021/01/07 13:40:38;;;;;;;;;;;6.30;79.30;;;;;;4933610;28;117760;-77
2021/01/07 13:43:05;;;;;;;;;;;6.30;79.20;;;;;;4934054;28;117789;-77
2021/01/07 13:45:31;;;;;;;;;;;6.30;79.20;;;;;;4949231;28;118202;-77
2021/01/07 13:47:57;;;;;;;;;;;6.30;79.20;;;;;;4949204;28;117458;-77
2021/01/07 13:50:23;;;;;;;;;;;6.30;79.20;;;;;;4933119;28;117411;-77
2021/01/07 13:52:51;;;;;;;;;;;6.30;79.30;;;;;;4950311;28;117532;-77
2021/01/07 13:55:16;;;;;;;;;;;6.30;79.30;;;;;;4932405;28;119754;-76
2021/01/07 13:57:42;;;;;;;;;;;6.30;79.30;;;;;;4949236;28;117351;-76
2021/01/07 14:00:08;;;;;;;;;;;6.30;79.30;;;;;;4949382;28;117340;-76
2021/01/07 14:02:34;;;;;;;;;;;6.30;79.10;;;;;;4949329;28;117626;-76
2021/01/07 14:05:01;;;;;;;;;;;6.30;79.10;;;;;;4948942;28;117774;-76
2021/01/07 14:07:30;;;;;;;;;;;6.30;79.20;;;;;;4932167;28;120268;-76
2021/01/07 14:09:59;;;;;;;;;;;6.30;79.20;;;;;;4949451;28;117249;-76
2021/01/07 14:12:26;;;;;;;;;;;6.30;79.20;;;;;;4949960;28;117746;-76
2021/01/07 14:14:52;;;;;;;;;;;6.30;79.20;;;;;;4948855;28;118099;-76